Time;durP1;ratioP1;P1;durP2;ratioP2;P2;SDS_P1;SDS_P2;PMS_P1;PMS_P2;Temp;Humidity;BMP_temperature;BMP_pressure;BME280_temperature;BME280_humidity;BME280_pressure;Samples;Min_cycle;Max_cycle;Signal;HPM_P1;HPM_P2
2022/06/24 00:01:39;;;;;;;4.53;1.10;;;;;;;;;;5053398;28;20029;-41
2022/06/24 00:04:04;;;;;;;6.97;1.33;;;;;;;;;;5053277;28;20418;-41
2022/06/24 00:06:43;;;;;;;3.63;1.25;;;;;;;;;;5052211;28;20040;-41
2022/06/24 00:09:10;;;;;;;1.33;0.90;;;;;;;;;;5052935;28;20033;-41
2022/06/24 00:11:35;;;;;;;2.00;1.25;;;;;;;;;;5052866;28;20104;-41
2022/06/24 00:14:04;;;;;;;2.45;1.33;;;;;;;;;;5052770;28;20116;-41
2022/06/24 00:16:29;;;;;;;4.00;1.20;;;;;;;;;;5052667;28;20570;-41
2022/06/24 00:19:07;;;;;;;11.18;1.05;;;;;;;;;;5052822;28;20116;-41
2022/06/24 00:21:33;;;;;;;2.85;2.13;;;;;;;;;;5052643;28;20039;-41
2022/06/24 00:23:58;;;;;;;2.92;1.60;;;;;;;;;;5052911;28;20116;-41
2022/06/24 00:26:36;;;;;;;2.00;1.48;;;;;;;;;;5052855;28;20029;-41
2022/06/24 00:29:02;;;;;;;1.75;1.60;;;;;;;;;;5051408;28;20540;-41
2022/06/24 00:31:28;;;;;;;2.13;1.70;;;;;;;;;;5052423;28;20017;-41
2022/06/24 00:33:53;;;;;;;3.88;2.17;;;;;;;;;;5051233;28;20052;-41
2022/06/24 00:36:19;;;;;;;8.52;3.20;;;;;;;;;;5052824;28;20491;-41
2022/06/24 00:38:49;;;;;;;3.38;2.13;;;;;;;;;;5052214;28;20033;-41
2022/06/24 00:41:15;;;;;;;5.93;2.95;;;;;;;;;;5052681;28;20037;-41
2022/06/24 00:43:41;;;;;;;8.20;2.55;;;;;;;;;;5052155;28;20045;-41
2022/06/24 00:46:16;;;;;;;6.55;3.17;;;;;;;;;;5052216;28;20021;-41
2022/06/24 00:48:46;;;;;;;3.38;2.40;;;;;;;;;;5052105;28;20032;-41
2022/06/24 00:51:11;;;;;;;3.70;2.03;;;;;;;;;;5052453;28;20033;-41
2022/06/24 00:53:44;;;;;;;5.30;2.10;;;;;;;;;;5052035;28;20186;-41
2022/06/24 00:56:11;;;;;;;5.95;1.80;;;;;;;;;;5052140;28;20033;-41
2022/06/24 00:58:37;;;;;;;10.07;2.47;;;;;;;;;;5052184;28;20412;-41
2022/06/24 01:01:02;;;;;;;3.30;2.30;;;;;;;;;;5051959;28;20230;-41
2022/06/24 01:03:39;;;;;;;3.88;2.78;;;;;;;;;;5051794;28;20064;-41
2022/06/24 01:06:05;;;;;;;3.58;2.00;;;;;;;;;;5051883;28;20036;-41
2022/06/24 01:08:30;;;;;;;7.85;2.20;;;;;;;;;;5051733;28;20017;-41
2022/06/24 01:10:55;;;;;;;5.13;3.03;;;;;;;;;;5051918;28;20033;-41
2022/06/24 01:13:23;;;;;;;2.60;1.58;;;;;;;;;;5051987;28;20060;-41
2022/06/24 01:15:49;;;;;;;3.42;1.85;;;;;;;;;;5051702;28;20143;-41
2022/06/24 01:18:14;;;;;;;3.78;1.60;;;;;;;;;;5051664;28;20112;-41
2022/06/24 01:20:40;;;;;;;7.40;1.90;;;;;;;;;;5050662;28;20057;-41
2022/06/24 01:23:05;;;;;;;2.10;1.42;;;;;;;;;;5050311;28;20411;-41
2022/06/24 01:25:31;;;;;;;2.33;1.38;;;;;;;;;;5050267;28;20062;-41
2022/06/24 01:27:57;;;;;;;2.63;1.30;;;;;;;;;;5051544;28;20021;-41
2022/06/24 01:30:23;;;;;;;3.40;1.52;;;;;;;;;;5051741;28;20024;-41
2022/06/24 01:32:48;;;;;;;2.28;1.70;;;;;;;;;;5051514;28;20524;-41
2022/06/24 01:35:14;;;;;;;7.70;1.90;;;;;;;;;;5051498;28;20027;-41
2022/06/24 01:37:39;;;;;;;1.90;1.30;;;;;;;;;;5051376;28;20463;-41
2022/06/24 01:40:05;;;;;;;2.22;1.58;;;;;;;;;;5051667;28;20025;-41
2022/06/24 01:42:31;;;;;;;3.35;2.13;;;;;;;;;;5051109;28;20047;-41
2022/06/24 01:44:56;;;;;;;1.45;1.10;;;;;;;;;;5051296;28;20033;-41
2022/06/24 01:47:21;;;;;;;2.10;1.23;;;;;;;;;;5051327;28;20025;-41
2022/06/24 01:49:47;;;;;;;5.15;1.58;;;;;;;;;;5051193;28;20158;-41
2022/06/24 01:52:12;;;;;;;2.28;1.58;;;;;;;;;;5051263;28;20028;-41
2022/06/24 01:54:37;;;;;;;1.75;1.52;;;;;;;;;;5051488;28;20040;-41
2022/06/24 01:57:03;;;;;;;2.63;1.55;;;;;;;;;;5051437;28;20017;-41
2022/06/24 01:59:28;;;;;;;4.82;1.77;;;;;;;;;;5049804;28;20032;-41
2022/06/24 02:01:54;;;;;;;2.78;1.30;;;;;;;;;;5051285;28;20017;-41
2022/06/24 02:04:19;;;;;;;5.05;1.60;;;;;;;;;;5051308;28;20508;-40
2022/06/24 02:06:44;;;;;;;4.63;1.70;;;;;;;;;;5051223;28;20630;-41
2022/06/24 02:09:16;;;;;;;5.20;2.05;;;;;;;;;;5051333;28;20104;-41
2022/06/24 02:14:26;;;;;;;6.85;1.83;;;;;;;;;;5051016;28;20173;-41
2022/06/24 02:16:52;;;;;;;3.72;1.40;;;;;;;;;;5049842;28;20032;-41
2022/06/24 02:19:17;;;;;;;4.25;1.65;;;;;;;;;;5050902;28;20040;-42
2022/06/24 02:21:42;;;;;;;3.63;1.85;;;;;;;;;;5050913;28;20017;-41
2022/06/24 02:24:08;;;;;;;5.00;1.73;;;;;;;;;;5051149;28;20052;-41
2022/06/24 02:26:33;;;;;;;2.47;1.73;;;;;;;;;;5050849;28;20099;-41
2022/06/24 02:28:59;;;;;;;5.70;2.00;;;;;;;;;;5051003;28;20034;-41
2022/06/24 02:31:24;;;;;;;5.00;1.88;;;;;;;;;;5054683;28;20017;-41
2022/06/24 02:33:49;;;;;;;5.93;1.73;;;;;;;;;;5054800;28;20033;-41
2022/06/24 02:36:15;;;;;;;2.35;1.63;;;;;;;;;;5054826;28;20036;-41
2022/06/24 02:38:41;;;;;;;3.08;1.70;;;;;;;;;;5054543;28;20071;-41
2022/06/24 02:41:06;;;;;;;7.22;1.40;;;;;;;;;;5054677;28;20021;-41
2022/06/24 02:43:36;;;;;;;4.35;2.17;;;;;;;;;;5054805;28;20067;-41
2022/06/24 02:46:05;;;;;;;4.55;1.80;;;;;;;;;;5054490;28;20460;-41
2022/06/24 02:48:32;;;;;;;5.35;1.60;;;;;;;;;;5054496;28;20036;-42
2022/06/24 02:50:59;;;;;;;2.97;1.42;;;;;;;;;;5054493;28;20370;-41
2022/06/24 02:53:25;;;;;;;6.68;1.73;;;;;;;;;;5054277;28;20036;-42
2022/06/24 02:55:54;;;;;;;2.88;1.85;;;;;;;;;;5054411;28;20029;-41
2022/06/24 02:58:20;;;;;;;3.45;1.92;;;;;;;;;;5053365;28;20035;-41
2022/06/24 03:00:46;;;;;;;7.95;2.20;;;;;;;;;;5054260;28;20017;-41
2022/06/24 03:03:12;;;;;;;5.00;2.17;;;;;;;;;;5054202;28;20504;-41
2022/06/24 03:05:38;;;;;;;3.40;1.65;;;;;;;;;;5054443;28;20013;-41
2022/06/24 03:08:03;;;;;;;2.40;2.15;;;;;;;;;;5054371;28;20029;-41
2022/06/24 03:10:29;;;;;;;2.80;1.48;;;;;;;;;;5054268;28;20017;-41
2022/06/24 03:12:54;;;;;;;3.25;1.92;;;;;;;;;;5052854;28;20065;-41
2022/06/24 03:15:19;;;;;;;2.70;1.60;;;;;;;;;;5053931;28;20045;-41
2022/06/24 03:17:45;;;;;;;2.53;2.00;;;;;;;;;;5054230;28;20033;-41
2022/06/24 03:20:10;;;;;;;3.55;1.25;;;;;;;;;;5054235;28;20036;-41
2022/06/24 03:22:36;;;;;;;3.17;1.40;;;;;;;;;;5053673;28;20045;-41
2022/06/24 03:25:02;;;;;;;3.70;1.70;;;;;;;;;;5053952;28;20364;-41
2022/06/24 03:27:27;;;;;;;2.60;1.63;;;;;;;;;;5054040;28;20036;-41
2022/06/24 03:29:52;;;;;;;4.07;1.55;;;;;;;;;;5053967;28;20066;-41
2022/06/24 03:32:18;;;;;;;7.00;1.92;;;;;;;;;;5052543;28;20519;-41
2022/06/24 03:34:43;;;;;;;9.18;1.85;;;;;;;;;;5053637;28;20025;-41
2022/06/24 03:37:09;;;;;;;4.85;1.98;;;;;;;;;;5053614;28;20021;-41
2022/06/24 03:39:35;;;;;;;4.78;1.67;;;;;;;;;;5053763;28;20025;-41
2022/06/24 03:42:00;;;;;;;3.15;1.90;;;;;;;;;;5051293;28;20021;-41
2022/06/24 03:44:26;;;;;;;10.25;1.63;;;;;;;;;;5053317;28;20059;-41
2022/06/24 03:46:51;;;;;;;5.10;2.53;;;;;;;;;;5053480;28;20021;-41
2022/06/24 03:49:19;;;;;;;2.75;1.85;;;;;;;;;;5053382;28;20020;-41
2022/06/24 03:51:44;;;;;;;4.18;1.73;;;;;;;;;;5053308;28;20025;-41
2022/06/24 03:54:09;;;;;;;1.55;1.45;;;;;;;;;;5053304;28;20123;-41
2022/06/24 03:56:35;;;;;;;4.38;2.00;;;;;;;;;;5053461;28;20090;-41
2022/06/24 03:59:00;;;;;;;7.05;2.45;;;;;;;;;;5053113;28;20028;-41
2022/06/24 04:01:26;;;;;;;4.82;2.00;;;;;;;;;;5053414;28;20085;-41
2022/06/24 04:03:51;;;;;;;4.22;1.58;;;;;;;;;;5053362;28;20033;-41
2022/06/24 04:06:17;;;;;;;7.68;1.92;;;;;;;;;;5053089;28;20025;-41
2022/06/24 04:08:43;;;;;;;3.30;2.08;;;;;;;;;;5053230;28;20498;-41
2022/06/24 04:11:09;;;;;;;4.70;1.60;;;;;;;;;;5052967;28;20034;-41
2022/06/24 04:13:35;;;;;;;6.53;2.10;;;;;;;;;;5052927;28;20514;-41
2022/06/24 04:16:00;;;;;;;5.70;1.90;;;;;;;;;;5052855;28;20072;-41
2022/06/24 04:18:25;;;;;;;3.78;1.92;;;;;;;;;;5052710;28;20028;-41
2022/06/24 04:20:51;;;;;;;4.07;2.50;;;;;;;;;;5053164;28;20029;-41
2022/06/24 04:23:17;;;;;;;4.03;2.20;;;;;;;;;;5052673;28;20032;-41
2022/06/24 04:25:42;;;;;;;3.53;2.20;;;;;;;;;;5052650;28;20032;-41
2022/06/24 04:28:08;;;;;;;3.63;1.85;;;;;;;;;;5052618;28;20025;-42
2022/06/24 04:30:34;;;;;;;3.35;1.70;;;;;;;;;;5052458;28;20029;-41
2022/06/24 04:32:59;;;;;;;1.58;1.02;;;;;;;;;;5052491;28;20021;-41
2022/06/24 04:35:25;;;;;;;5.15;2.20;;;;;;;;;;5052502;28;20383;-41
2022/06/24 04:37:50;;;;;;;4.70;2.20;;;;;;;;;;5052758;28;20083;-41
2022/06/24 04:40:16;;;;;;;3.95;1.80;;;;;;;;;;5052178;28;20056;-40
2022/06/24 04:42:41;;;;;;;4.53;2.00;;;;;;;;;;5052239;28;20049;-41
2022/06/24 04:45:07;;;;;;;3.45;1.63;;;;;;;;;;5051195;28;20028;-41
2022/06/24 04:47:32;;;;;;;1.75;1.33;;;;;;;;;;5052241;28;20048;-41
2022/06/24 04:49:58;;;;;;;2.80;1.58;;;;;;;;;;5052215;28;20029;-41
2022/06/24 04:52:23;;;;;;;2.30;1.70;;;;;;;;;;5051875;28;20459;-41
2022/06/24 04:54:50;;;;;;;1.90;1.50;;;;;;;;;;5052605;28;20145;-41
2022/06/24 04:57:16;;;;;;;2.08;1.50;;;;;;;;;;5051998;28;20455;-40
2022/06/24 04:59:41;;;;;;;3.42;2.33;;;;;;;;;;5050702;28;20047;-41
2022/06/24 05:02:07;;;;;;;4.65;1.90;;;;;;;;;;5051876;28;20013;-40
2022/06/24 05:04:32;;;;;;;3.22;2.13;;;;;;;;;;5051872;28;20036;-41
2022/06/24 05:06:57;;;;;;;3.63;2.13;;;;;;;;;;5051966;28;20393;-41
2022/06/24 05:09:23;;;;;;;2.65;1.67;;;;;;;;;;5052223;28;20032;-41
2022/06/24 05:11:50;;;;;;;5.88;2.33;;;;;;;;;;5050535;28;20029;-40
2022/06/24 05:14:17;;;;;;;5.60;2.28;;;;;;;;;;5051674;28;20044;-41
2022/06/24 05:16:42;;;;;;;6.75;2.03;;;;;;;;;;5051685;28;20031;-44
2022/06/24 05:19:10;;;;;;;2.75;1.60;;;;;;;;;;5050504;28;20112;-41
2022/06/24 05:21:36;;;;;;;1.77;1.55;;;;;;;;;;5051884;28;20017;-41
2022/06/24 05:24:03;;;;;;;3.83;1.83;;;;;;;;;;5051337;28;20048;-41
2022/06/24 05:26:29;;;;;;;2.63;2.13;;;;;;;;;;5051337;28;20459;-41
2022/06/24 05:28:55;;;;;;;3.40;1.60;;;;;;;;;;5051008;28;20368;-41
2022/06/24 05:31:21;;;;;;;2.55;1.92;;;;;;;;;;5051450;28;20017;-42
2022/06/24 05:33:47;;;;;;;2.60;1.77;;;;;;;;;;5051515;28;20032;-42
2022/06/24 05:36:12;;;;;;;3.45;1.70;;;;;;;;;;5051505;28;20498;-41
2022/06/24 05:38:38;;;;;;;3.22;2.10;;;;;;;;;;5051253;28;20036;-41
2022/06/24 05:41:03;;;;;;;3.75;1.55;;;;;;;;;;5051415;28;20024;-41
2022/06/24 05:43:29;;;;;;;3.90;2.67;;;;;;;;;;5051174;28;20073;-41
2022/06/24 05:45:54;;;;;;;2.95;2.33;;;;;;;;;;5051348;28;20017;-41
2022/06/24 05:48:20;;;;;;;7.10;1.85;;;;;;;;;;5051385;28;20116;-41
2022/06/24 05:50:45;;;;;;;6.38;1.90;;;;;;;;;;5051187;28;20032;-41
2022/06/24 05:55:56;;;;;;;2.78;2.20;;;;;;;;;;5051306;28;20021;-41
2022/06/24 05:58:22;;;;;;;4.03;2.45;;;;;;;;;;5051389;28;20032;-41
2022/06/24 06:00:47;;;;;;;2.90;2.50;;;;;;;;;;5049873;28;20025;-40
2022/06/24 06:03:13;;;;;;;5.32;2.05;;;;;;;;;;5051106;28;20045;-40
2022/06/24 06:05:38;;;;;;;3.55;2.58;;;;;;;;;;5053896;28;20033;-41
2022/06/24 06:08:03;;;;;;;3.45;2.05;;;;;;;;;;5054065;28;20056;-41
2022/06/24 06:10:29;;;;;;;3.42;2.13;;;;;;;;;;5055384;28;20389;-41
2022/06/24 06:12:55;;;;;;;4.78;2.20;;;;;;;;;;5055447;28;20025;-41
2022/06/24 06:15:20;;;;;;;8.95;1.73;;;;;;;;;;5054978;28;20059;-41
2022/06/24 06:17:45;;;;;;;4.20;2.40;;;;;;;;;;5055400;28;20037;-41
2022/06/24 06:20:11;;;;;;;7.10;1.98;;;;;;;;;;5055014;28;20037;-41
2022/06/24 06:22:36;;;;;;;7.47;2.15;;;;;;;;;;5054803;28;20021;-41
2022/06/24 06:25:02;;;;;;;2.67;2.13;;;;;;;;;;5055138;28;20075;-41
2022/06/24 06:27:27;;;;;;;3.50;1.83;;;;;;;;;;5055093;28;20029;-41
2022/06/24 06:29:53;;;;;;;4.05;2.15;;;;;;;;;;5054962;28;20028;-41
2022/06/24 06:32:18;;;;;;;6.03;1.80;;;;;;;;;;5054897;28;20367;-41
2022/06/24 06:34:44;;;;;;;2.10;1.63;;;;;;;;;;5054738;28;20025;-41
2022/06/24 06:37:09;;;;;;;5.28;1.73;;;;;;;;;;5055097;28;20017;-41
2022/06/24 06:39:36;;;;;;;5.72;1.70;;;;;;;;;;5054665;28;20491;-42
2022/06/24 06:42:02;;;;;;;4.15;2.60;;;;;;;;;;5055166;28;20021;-43
2022/06/24 06:44:41;;;;;;;3.47;1.80;;;;;;;;;;5053186;28;20045;-40
2022/06/24 06:47:07;;;;;;;2.83;2.03;;;;;;;;;;5054551;28;20090;-41
2022/06/24 06:49:33;;;;;;;7.43;2.17;;;;;;;;;;5054790;28;20455;-41
2022/06/24 06:52:02;;;;;;;4.85;2.50;;;;;;;;;;5053164;28;20025;-41
2022/06/24 06:54:29;;;;;;;3.60;2.15;;;;;;;;;;5054408;28;20021;-41
2022/06/24 06:56:56;;;;;;;2.42;1.75;;;;;;;;;;5054488;28;20025;-41
2022/06/24 06:59:21;;;;;;;2.75;2.13;;;;;;;;;;5053149;28;20028;-42
2022/06/24 07:01:47;;;;;;;2.42;2.17;;;;;;;;;;5054211;28;20028;-41
2022/06/24 07:04:12;;;;;;;3.90;2.28;;;;;;;;;;5054485;28;20033;-41
2022/06/24 07:06:38;;;;;;;6.65;2.53;;;;;;;;;;5054222;28;20490;-41
2022/06/24 07:09:03;;;;;;;9.13;1.90;;;;;;;;;;5054114;28;20502;-41
2022/06/24 07:11:29;;;;;;;3.13;2.20;;;;;;;;;;5054053;28;20036;-42
2022/06/24 07:13:55;;;;;;;3.85;2.38;;;;;;;;;;5054260;28;20036;-41
2022/06/24 07:16:20;;;;;;;4.85;2.35;;;;;;;;;;5053576;28;20115;-41
2022/06/24 07:18:46;;;;;;;4.25;2.42;;;;;;;;;;5053929;28;20036;-41
2022/06/24 07:21:12;;;;;;;5.05;2.50;;;;;;;;;;5054252;28;20040;-41
2022/06/24 07:23:39;;;;;;;2.65;2.22;;;;;;;;;;5053951;28;20037;-41
2022/06/24 07:26:05;;;;;;;3.55;2.08;;;;;;;;;;5053942;28;20467;-41
2022/06/24 07:28:30;;;;;;;4.45;2.88;;;;;;;;;;5054027;28;20025;-41
2022/06/24 07:30:55;;;;;;;3.33;2.58;;;;;;;;;;5054045;28;20533;-41
2022/06/24 07:33:22;;;;;;;4.80;2.20;;;;;;;;;;5053818;28;20078;-42
2022/06/24 07:35:47;;;;;;;8.85;2.45;;;;;;;;;;5053555;28;20112;-41
2022/06/24 07:38:13;;;;;;;8.75;2.42;;;;;;;;;;5053668;28;20140;-41
2022/06/24 07:40:39;;;;;;;6.43;2.95;;;;;;;;;;5053510;28;20107;-41
2022/06/24 07:43:04;;;;;;;4.43;2.33;;;;;;;;;;5053459;28;20029;-41
2022/06/24 07:45:29;;;;;;;5.60;2.55;;;;;;;;;;5053730;28;20040;-41
2022/06/24 07:47:55;;;;;;;5.13;2.60;;;;;;;;;;5053359;28;20122;-41
2022/06/24 07:50:20;;;;;;;6.55;3.03;;;;;;;;;;5053416;28;20033;-41
2022/06/24 07:52:46;;;;;;;3.92;2.58;;;;;;;;;;5053266;28;20170;-42
2022/06/24 07:57:55;;;;;;;12.52;2.95;;;;;;;;;;5053231;28;20029;-42
2022/06/24 08:00:21;;;;;;;3.47;2.40;;;;;;;;;;5053206;28;20017;-41
2022/06/24 08:02:46;;;;;;;3.85;2.63;;;;;;;;;;5053027;28;20037;-41
2022/06/24 08:05:13;;;;;;;7.60;2.63;;;;;;;;;;5053098;28;20032;-42
2022/06/24 08:07:39;;;;;;;4.35;2.60;;;;;;;;;;5053208;28;20025;-41
2022/06/24 08:10:05;;;;;;;10.93;3.80;;;;;;;;;;5053268;28;20486;-41
2022/06/24 08:12:30;;;;;;;5.25;3.35;;;;;;;;;;5053168;28;20033;-41
2022/06/24 08:14:56;;;;;;;5.43;3.03;;;;;;;;;;5052834;28;20053;-41
2022/06/24 08:17:21;;;;;;;6.97;3.28;;;;;;;;;;5052918;28;20025;-41
2022/06/24 08:19:46;;;;;;;7.55;2.80;;;;;;;;;;5052734;28;20020;-42
2022/06/24 08:22:12;;;;;;;6.80;4.28;;;;;;;;;;5051516;28;20406;-41
2022/06/24 08:24:38;;;;;;;6.05;3.03;;;;;;;;;;5052539;28;20502;-40
2022/06/24 08:27:04;;;;;;;12.35;2.97;;;;;;;;;;5052245;28;20056;-40
2022/06/24 08:29:29;;;;;;;9.95;3.15;;;;;;;;;;5052507;28;20025;-41
2022/06/24 08:31:55;;;;;;;11.48;2.95;;;;;;;;;;5052888;28;20031;-41
2022/06/24 08:34:21;;;;;;;6.57;2.88;;;;;;;;;;5052541;28;20116;-41
2022/06/24 08:36:47;;;;;;;6.18;3.38;;;;;;;;;;5052392;28;20068;-40
2022/06/24 08:39:12;;;;;;;6.85;3.58;;;;;;;;;;5052337;28;20032;-41
2022/06/24 08:41:38;;;;;;;13.15;2.58;;;;;;;;;;5052568;28;20379;-42
2022/06/24 08:44:04;;;;;;;8.90;4.57;;;;;;;;;;5051255;28;20479;-41
2022/06/24 08:46:30;;;;;;;14.50;3.58;;;;;;;;;;5052303;28;20025;-42
2022/06/24 08:48:58;;;;;;;7.72;4.05;;;;;;;;;;5052486;28;20020;-41
2022/06/24 08:51:24;;;;;;;9.13;4.05;;;;;;;;;;5052551;28;20104;-41
2022/06/24 08:53:51;;;;;;;6.95;3.83;;;;;;;;;;5050839;28;20166;-42
2022/06/24 08:56:17;;;;;;;11.52;3.47;;;;;;;;;;5052391;28;20033;-41
2022/06/24 08:58:42;;;;;;;7.53;3.13;;;;;;;;;;5052032;28;20463;-42
2022/06/24 09:01:12;;;;;;;6.30;3.42;;;;;;;;;;5052023;28;20104;-42
2022/06/24 09:03:37;;;;;;;11.45;3.70;;;;;;;;;;5051763;28;20033;-41
2022/06/24 09:06:10;;;;;;;11.25;4.47;;;;;;;;;;5051946;28;20032;-42
2022/06/24 09:08:35;;;;;;;19.35;4.40;;;;;;;;;;5051843;28;20079;-41
2022/06/24 09:11:10;;;;;;;9.43;3.38;;;;;;;;;;5051893;28;20068;-42
2022/06/24 09:13:42;;;;;;;5.05;3.58;;;;;;;;;;5051761;28;20029;-42
2022/06/24 09:16:08;;;;;;;9.50;4.22;;;;;;;;;;5051752;28;20086;-42
2022/06/24 09:18:34;;;;;;;9.93;3.67;;;;;;;;;;5051513;28;20517;-42
2022/06/24 09:20:59;;;;;;;18.05;4.28;;;;;;;;;;5051835;28;20036;-42
2022/06/24 09:23:25;;;;;;;19.23;4.57;;;;;;;;;;5051614;28;20043;-41
2022/06/24 09:25:51;;;;;;;12.70;10.80;;;;;;;;;;5051796;28;20039;-42
2022/06/24 09:28:20;;;;;;;13.23;4.47;;;;;;;;;;5051870;28;20383;-42
2022/06/24 09:30:48;;;;;;;8.50;4.05;;;;;;;;;;5050262;28;20037;-41
2022/06/24 09:33:17;;;;;;;12.27;3.85;;;;;;;;;;5051782;28;20013;-42
2022/06/24 09:35:43;;;;;;;9.05;3.17;;;;;;;;;;5051410;28;20418;-41
2022/06/24 09:38:09;;;;;;;9.52;3.13;;;;;;;;;;5051393;28;20021;-42
2022/06/24 09:40:34;;;;;;;17.23;3.33;;;;;;;;;;5051579;28;20032;-42
2022/06/24 09:43:01;;;;;;;11.95;3.33;;;;;;;;;;5051382;28;20398;-42
2022/06/24 09:45:42;;;;;;;15.90;4.13;;;;;;;;;;5051366;28;20043;-41
2022/06/24 09:48:08;;;;;;;7.90;3.65;;;;;;;;;;5051566;28;20044;-42
2022/06/24 09:50:34;;;;;;;13.88;3.42;;;;;;;;;;5051390;28;20025;-41
2022/06/24 09:53:01;;;;;;;9.27;3.40;;;;;;;;;;5051577;28;20426;-41
2022/06/24 09:55:27;;;;;;;10.13;2.97;;;;;;;;;;5051268;28;20021;-41
2022/06/24 09:57:54;;;;;;;10.77;3.33;;;;;;;;;;5051197;28;20029;-41
2022/06/24 10:03:07;;;;;;;17.42;3.63;;;;;;;;;;5051100;28;20506;-41
2022/06/24 10:05:37;;;;;;;4.28;2.53;;;;;;;;;;5051100;28;20797;-42
2022/06/24 10:08:04;;;;;;;10.60;2.88;;;;;;;;;;5049863;28;20029;-42
2022/06/24 10:10:30;;;;;;;11.77;2.75;;;;;;;;;;5050939;28;20055;-41
2022/06/24 10:13:00;;;;;;;8.10;2.85;;;;;;;;;;5051325;28;20043;-41
2022/06/24 10:15:26;;;;;;;8.63;2.83;;;;;;;;;;5050772;28;20408;-41
2022/06/24 10:17:52;;;;;;;16.80;2.67;;;;;;;;;;5051021;28;20036;-42
2022/06/24 10:20:18;;;;;;;10.73;3.35;;;;;;;;;;5051078;28;20017;-42
2022/06/24 10:22:45;;;;;;;12.77;2.63;;;;;;;;;;5050774;28;20499;-42
2022/06/24 10:25:10;;;;;;;16.15;3.55;;;;;;;;;;5050976;28;20025;-41
2022/06/24 10:27:55;;;;;;;18.45;3.58;;;;;;;;;;5050855;28;20036;-41
2022/06/24 10:30:54;;;;;;;10.30;3.13;;;;;;;;;;5049636;28;20044;-42
2022/06/24 10:33:21;;;;;;;10.55;3.47;;;;;;;;;;5049574;28;20044;-41
2022/06/24 10:36:00;;;;;;;11.63;2.88;;;;;;;;;;5051068;28;20055;-41
2022/06/24 10:38:33;;;;;;;9.90;3.38;;;;;;;;;;5050938;28;20040;-42
2022/06/24 10:40:59;;;;;;;15.32;3.38;;;;;;;;;;5050872;28;20037;-41
2022/06/24 10:43:33;;;;;;;10.45;3.83;;;;;;;;;;5050719;28;20186;-42
2022/06/24 10:46:13;;;;;;;14.25;2.67;;;;;;;;;;5050840;28;20036;-42
2022/06/24 10:48:51;;;;;;;12.00;2.90;;;;;;;;;;5050688;28;20078;-41
2022/06/24 10:51:17;;;;;;;8.90;4.22;;;;;;;;;;5052967;28;20041;-41
2022/06/24 10:54:01;;;;;;;7.70;2.58;;;;;;;;;;5053517;28;20419;-41
2022/06/24 10:56:40;;;;;;;9.20;2.85;;;;;;;;;;5054478;28;20065;-41
2022/06/24 10:59:05;;;;;;;6.10;2.17;;;;;;;;;;5054326;28;20032;-42
2022/06/24 11:01:31;;;;;;;23.15;3.70;;;;;;;;;;5054351;28;20028;-41
2022/06/24 11:03:58;;;;;;;25.65;4.57;;;;;;;;;;5054474;28;20045;-41
2022/06/24 11:06:23;;;;;;;15.95;3.38;;;;;;;;;;5054238;28;20467;-42
2022/06/24 11:08:49;;;;;;;12.05;2.45;;;;;;;;;;5054397;28;20112;-42
2022/06/24 11:11:26;;;;;;;20.13;3.15;;;;;;;;;;5054170;28;20013;-41
2022/06/24 11:13:52;;;;;;;9.68;3.22;;;;;;;;;;5054161;28;20039;-42
2022/06/24 11:16:17;;;;;;;12.32;2.67;;;;;;;;;;5053951;28;20053;-42
2022/06/24 11:18:43;;;;;;;7.85;2.78;;;;;;;;;;5053882;28;20036;-41
2022/06/24 11:21:09;;;;;;;10.85;2.35;;;;;;;;;;5053980;28;20024;-42
2022/06/24 11:23:35;;;;;;;12.10;2.47;;;;;;;;;;5054029;28;20479;-41
2022/06/24 11:26:01;;;;;;;8.25;2.53;;;;;;;;;;5053924;28;20024;-41
2022/06/24 11:28:28;;;;;;;12.10;2.97;;;;;;;;;;5052515;28;20480;-42
2022/06/24 11:30:54;;;;;;;10.50;2.83;;;;;;;;;;5053814;28;20029;-42
2022/06/24 11:33:23;;;;;;;10.10;2.45;;;;;;;;;;5053761;28;20037;-42
2022/06/24 11:35:49;;;;;;;11.60;3.33;;;;;;;;;;5053723;28;20021;-42
2022/06/24 11:38:15;;;;;;;10.48;2.33;;;;;;;;;;5053986;28;20035;-41
2022/06/24 11:40:41;;;;;;;7.97;2.60;;;;;;;;;;5053552;28;20102;-42
2022/06/24 11:43:09;;;;;;;10.88;2.10;;;;;;;;;;5053478;28;20048;-41
2022/06/24 11:45:48;;;;;;;25.35;3.15;;;;;;;;;;5053809;28;20017;-42
2022/06/24 11:48:21;;;;;;;13.48;3.03;;;;;;;;;;5053416;28;20078;-42
2022/06/24 11:50:46;;;;;;;;;;;;;;;;;;5053844;28;20548;-42
2022/06/24 11:53:12;;;;;;;13.45;2.03;;;;;;;;;;5053687;28;19904;-41
2022/06/24 11:55:38;;;;;;;11.65;2.40;;;;;;;;;;5053491;28;20487;-41
2022/06/24 11:58:08;;;;;;;11.40;2.85;;;;;;;;;;5053234;28;20023;-41
2022/06/24 12:00:37;;;;;;;15.35;2.55;;;;;;;;;;5053488;28;20037;-42
2022/06/24 12:03:04;;;;;;;13.10;1.98;;;;;;;;;;5051955;28;20040;-41
2022/06/24 12:05:32;;;;;;;15.32;3.13;;;;;;;;;;5051920;28;20539;-42
2022/06/24 12:07:58;;;;;;;7.70;2.63;;;;;;;;;;5053069;28;20394;-41
2022/06/24 12:10:24;;;;;;;10.45;1.98;;;;;;;;;;5053344;28;20036;-42
2022/06/24 12:13:05;;;;;;;11.70;3.28;;;;;;;;;;5052917;28;20463;-41
2022/06/24 12:15:31;;;;;;;5.70;2.13;;;;;;;;;;5052737;28;20052;-41
2022/06/24 12:17:57;;;;;;;10.18;2.63;;;;;;;;;;5053206;28;20399;-41
2022/06/24 12:20:28;;;;;;;15.43;2.63;;;;;;;;;;5052865;28;20056;-42
2022/06/24 12:23:16;;;;;;;15.90;2.47;;;;;;;;;;5052586;28;20047;-41
2022/06/24 12:25:42;;;;;;;13.60;2.00;;;;;;;;;;5052671;28;20044;-41
2022/06/24 12:28:12;;;;;;;13.38;2.33;;;;;;;;;;5052915;28;20076;-42
2022/06/24 12:30:38;;;;;;;5.00;1.67;;;;;;;;;;5052565;28;20114;-42
2022/06/24 12:33:09;;;;;;;11.65;1.67;;;;;;;;;;5052714;28;20057;-42
2022/06/24 12:35:37;;;;;;;4.43;2.00;;;;;;;;;;5052588;28;20025;-42
2022/06/24 12:38:04;;;;;;;23.85;3.97;;;;;;;;;;5052494;28;20052;-42
2022/06/24 12:40:30;;;;;;;23.42;2.90;;;;;;;;;;5052591;28;20021;-42
2022/06/24 12:43:11;;;;;;;14.45;2.55;;;;;;;;;;5052312;28;20410;-41
2022/06/24 12:45:38;;;;;;;14.05;3.35;;;;;;;;;;5052561;28;20438;-42
2022/06/24 12:51:03;;;;;;;13.15;2.35;;;;;;;;;;5052455;28;20036;-42
2022/06/24 12:53:29;;;;;;;13.38;2.63;;;;;;;;;;5052333;28;20100;-41
2022/06/24 12:55:55;;;;;;;13.23;2.42;;;;;;;;;;5052117;28;20013;-43
2022/06/24 12:58:21;;;;;;;12.73;2.13;;;;;;;;;;5050907;28;20029;-42
2022/06/24 13:00:47;;;;;;;10.57;2.22;;;;;;;;;;5052085;28;20031;-42
2022/06/24 13:03:15;;;;;;;10.65;2.17;;;;;;;;;;5052001;28;20073;-42
2022/06/24 13:05:40;;;;;;;13.65;3.22;;;;;;;;;;5051878;28;20100;-42
2022/06/24 13:08:06;;;;;;;14.10;3.00;;;;;;;;;;5051935;28;20175;-42
2022/06/24 13:10:32;;;;;;;6.00;1.67;;;;;;;;;;5051936;28;20035;-41
2022/06/24 13:12:58;;;;;;;10.85;2.40;;;;;;;;;;5050400;28;20491;-42
2022/06/24 13:15:24;;;;;;;11.68;2.15;;;;;;;;;;5051629;28;20047;-42
2022/06/24 13:17:49;;;;;;;12.13;2.38;;;;;;;;;;5051777;28;20108;-43
2022/06/24 13:20:15;;;;;;;8.98;2.25;;;;;;;;;;5052024;28;20016;-42
2022/06/24 13:22:41;;;;;;;8.88;2.25;;;;;;;;;;5051927;28;20391;-42
2022/06/24 13:25:07;;;;;;;8.90;2.65;;;;;;;;;;5051742;28;20033;-42
2022/06/24 13:27:33;;;;;;;11.35;2.65;;;;;;;;;;5051471;28;20024;-41
2022/06/24 13:29:58;;;;;;;13.80;2.35;;;;;;;;;;5051619;28;20082;-44
2022/06/24 13:32:24;;;;;;;11.98;1.88;;;;;;;;;;5051605;28;20029;-42
2022/06/24 13:34:50;;;;;;;11.70;1.85;;;;;;;;;;5051675;28;20073;-41
2022/06/24 13:37:15;;;;;;;8.43;1.90;;;;;;;;;;5051498;28;20051;-42
2022/06/24 13:39:41;;;;;;;9.40;1.45;;;;;;;;;;5051449;28;20103;-42
2022/06/24 13:42:06;;;;;;;11.90;3.03;;;;;;;;;;5051682;28;20391;-42
2022/06/24 13:44:34;;;;;;;17.13;1.65;;;;;;;;;;5051430;28;20427;-42
2022/06/24 13:47:00;;;;;;;8.27;1.95;;;;;;;;;;5051396;28;20037;-42
2022/06/24 13:49:25;;;;;;;11.25;1.92;;;;;;;;;;5051351;28;20021;-42
2022/06/24 13:51:51;;;;;;;9.48;2.50;;;;;;;;;;5051283;28;20154;-42
2022/06/24 13:54:16;;;;;;;4.93;1.90;;;;;;;;;;5051614;28;20032;-42
2022/06/24 13:56:42;;;;;;;11.45;1.48;;;;;;;;;;5051394;28;20390;-42
2022/06/24 13:59:07;;;;;;;10.65;2.35;;;;;;;;;;5051489;28;20032;-42
2022/06/24 14:01:33;;;;;;;13.55;2.22;;;;;;;;;;5051140;28;20471;-42
2022/06/24 14:03:59;;;;;;;11.35;1.92;;;;;;;;;;5051073;28;20121;-42
2022/06/24 14:06:24;;;;;;;7.93;1.75;;;;;;;;;;5051255;28;20029;-42
2022/06/24 14:08:50;;;;;;;14.02;1.77;;;;;;;;;;5051303;28;20067;-41
2022/06/24 14:11:16;;;;;;;7.60;1.30;;;;;;;;;;5051339;28;20025;-42
2022/06/24 14:13:42;;;;;;;13.27;1.73;;;;;;;;;;5051312;28;20025;-43
2022/06/24 14:16:08;;;;;;;10.57;1.63;;;;;;;;;;5051428;28;20529;-42
2022/06/24 14:18:35;;;;;;;12.45;1.33;;;;;;;;;;5049645;28;20037;-42
2022/06/24 14:21:02;;;;;;;9.50;1.73;;;;;;;;;;5051156;28;20086;-42
2022/06/24 14:26:11;;;;;;;12.57;1.95;;;;;;;;;;5053351;28;20037;-42
2022/06/24 14:28:37;;;;;;;6.50;1.88;;;;;;;;;;5054931;28;20455;-42
2022/06/24 14:31:04;;;;;;;10.48;2.15;;;;;;;;;;5054932;28;20364;-42
2022/06/24 14:33:29;;;;;;;8.15;1.75;;;;;;;;;;5054970;28;20021;-42
2022/06/24 14:35:55;;;;;;;7.78;1.65;;;;;;;;;;5054798;28;20032;-42
2022/06/24 14:41:04;;;;;;;11.73;1.85;;;;;;;;;;5055046;28;20029;-42
2022/06/24 14:43:30;;;;;;;3.58;2.22;;;;;;;;;;5054749;28;20047;-41
2022/06/24 14:45:56;;;;;;;5.47;1.45;;;;;;;;;;5054519;28;20064;-42
2022/06/24 14:48:21;;;;;;;12.23;2.55;;;;;;;;;;5054698;28;20036;-42
2022/06/24 14:50:47;;;;;;;19.33;2.88;;;;;;;;;;5054513;28;20045;-42
2022/06/24 14:53:12;;;;;;;9.10;2.05;;;;;;;;;;5054465;28;20017;-42
2022/06/24 14:55:38;;;;;;;12.30;1.63;;;;;;;;;;5054760;28;20064;-42